createdAt,value
2023-04-23T00:00:37.217Z,13.97
2023-04-23T00:03:13.277Z,13.83
2023-04-23T00:05:45.031Z,13.91
2023-04-23T00:08:21.858Z,13.90
2023-04-23T00:10:51.611Z,14.01
2023-04-23T00:13:21.026Z,13.92
2023-04-23T00:15:52.425Z,13.86
2023-04-23T00:18:21.453Z,13.78
2023-04-23T00:20:51.180Z,13.83
2023-04-23T00:23:21.484Z,13.93
2023-04-23T00:25:50.861Z,13.93
2023-04-23T00:28:22.091Z,13.82
2023-04-23T00:30:51.534Z,13.83
2023-04-23T00:33:20.947Z,13.64
2023-04-23T00:35:50.122Z,13.78
2023-04-23T00:38:21.106Z,13.62
2023-04-23T00:40:51.628Z,13.46
2023-04-23T00:43:21.267Z,13.71
2023-04-23T00:45:53.495Z,13.60
2023-04-23T00:48:23.410Z,13.61
2023-04-23T00:50:59.771Z,13.44
2023-04-23T00:53:30.216Z,13.72
2023-04-23T00:56:03.035Z,13.62
2023-04-23T00:58:32.866Z,13.67
2023-04-23T01:01:04.552Z,13.64
2023-04-23T01:03:36.506Z,13.39
2023-04-23T01:06:06.445Z,13.63
2023-04-23T01:08:36.483Z,13.44
2023-04-23T01:11:07.544Z,13.69
2023-04-23T01:13:36.859Z,13.77
2023-04-23T01:16:06.193Z,13.68
2023-04-23T01:18:36.116Z,13.63
2023-04-23T01:21:07.296Z,13.76
2023-04-23T01:23:37.893Z,13.52
2023-04-23T01:26:07.532Z,13.63
2023-04-23T01:28:36.788Z,13.51
2023-04-23T01:31:06.245Z,13.06
2023-04-23T01:33:36.090Z,13.61
2023-04-23T01:36:08.600Z,13.81
2023-04-23T01:38:41.031Z,13.49
2023-04-23T01:41:10.653Z,13.75
2023-04-23T01:43:43.320Z,13.76
2023-04-23T01:46:13.234Z,13.68
2023-04-23T01:48:43.637Z,13.86
2023-04-23T01:51:12.793Z,13.84
2023-04-23T01:53:43.129Z,13.90
2023-04-23T01:56:13.525Z,13.84
2023-04-23T01:58:45.561Z,13.72
2023-04-23T02:01:14.741Z,13.84
2023-04-23T02:03:44.417Z,13.72
2023-04-23T02:06:14.032Z,13.74
2023-04-23T02:08:44.813Z,13.78
2023-04-23T02:11:13.938Z,13.68
2023-04-23T02:13:43.441Z,13.66
2023-04-23T02:16:13.301Z,13.68
2023-04-23T02:18:42.661Z,13.10
2023-04-23T02:21:13.302Z,13.46
2023-04-23T02:23:42.350Z,13.38
2023-04-23T02:26:12.972Z,13.44
2023-04-23T02:28:42.211Z,13.35
2023-04-23T02:31:11.468Z,13.49
2023-04-23T02:33:42.740Z,13.45
2023-04-23T02:36:12.374Z,13.44
2023-04-23T02:38:44.916Z,13.37
2023-04-23T02:41:15.993Z,13.42
2023-04-23T02:43:45.137Z,13.27
2023-04-23T02:46:14.460Z,13.32
2023-04-23T02:48:46.127Z,13.25
2023-04-23T02:51:15.850Z,13.28
2023-04-23T02:53:45.001Z,13.42
2023-04-23T02:56:15.685Z,13.46
2023-04-23T02:58:44.809Z,13.45
2023-04-23T03:01:14.622Z,13.56
2023-04-23T03:03:44.348Z,13.49
2023-04-23T03:06:13.756Z,13.48
2023-04-23T03:08:43.002Z,13.46
2023-04-23T03:11:12.172Z,13.43
2023-04-23T03:13:42.914Z,13.39
2023-04-23T03:16:12.111Z,13.38
2023-04-23T03:18:41.668Z,13.44
2023-04-23T03:21:10.761Z,13.57
2023-04-23T03:23:40.072Z,13.48
2023-04-23T03:26:09.308Z,13.41
2023-04-23T03:28:38.587Z,13.51
2023-04-23T03:31:09.432Z,13.51
2023-04-23T03:33:38.583Z,13.59
2023-04-23T03:36:07.999Z,13.59
2023-04-23T03:38:37.033Z,13.62
2023-04-23T03:41:07.374Z,13.60
2023-04-23T03:43:36.903Z,13.51
2023-04-23T03:46:06.736Z,13.54
2023-04-23T03:48:41.680Z,13.57
2023-04-23T03:51:24.984Z,13.71
2023-04-23T03:53:53.988Z,13.91
2023-04-23T03:56:37.621Z,13.84
2023-04-23T03:59:20.665Z,13.93
2023-04-23T04:01:51.815Z,14.13
2023-04-23T04:04:22.565Z,14.08
2023-04-23T04:06:52.965Z,14.24
2023-04-23T04:09:22.183Z,14.40
2023-04-23T04:11:52.866Z,14.50
2023-04-23T04:14:22.868Z,14.54
2023-04-23T04:16:52.045Z,14.62
2023-04-23T04:19:23.069Z,14.64
2023-04-23T04:21:52.408Z,14.71
2023-04-23T04:24:24.934Z,14.91
2023-04-23T04:26:55.245Z,15.02
2023-04-23T04:29:25.492Z,15.00
2023-04-23T04:31:57.285Z,15.08
2023-04-23T04:34:28.058Z,15.16
2023-04-23T04:36:57.620Z,15.22
2023-04-23T04:39:27.079Z,15.12
2023-04-23T04:41:57.564Z,14.85
2023-04-23T04:44:28.162Z,15.07
2023-04-23T04:46:57.819Z,15.05
2023-04-23T04:49:28.484Z,15.20
2023-04-23T04:51:57.718Z,15.50
2023-04-23T04:54:27.079Z,15.47
2023-04-23T04:56:56.440Z,15.39
2023-04-23T04:59:25.693Z,15.27
2023-04-23T05:01:55.030Z,15.20
2023-04-23T05:04:24.428Z,15.48
2023-04-23T05:06:57.408Z,15.77
2023-04-23T05:09:27.678Z,15.57
2023-04-23T05:11:56.979Z,15.43
2023-04-23T05:14:27.524Z,15.52
2023-04-23T05:16:56.702Z,15.78
2023-04-23T05:19:25.913Z,15.53
2023-04-23T05:21:56.718Z,15.89
2023-04-23T05:24:26.619Z,16.07
2023-04-23T05:26:56.845Z,15.79
2023-04-23T05:29:26.136Z,16.17
2023-04-23T05:31:57.206Z,16.27
2023-04-23T05:34:27.210Z,16.22
2023-04-23T05:37:03.512Z,16.29
2023-04-23T05:39:32.711Z,16.25
2023-04-23T05:42:06.301Z,16.19
2023-04-23T05:44:39.207Z,15.40
2023-04-23T05:47:09.315Z,16.40
2023-04-23T05:49:38.978Z,16.61
2023-04-23T05:52:09.764Z,16.45
2023-04-23T05:54:39.097Z,16.47
2023-04-23T05:57:08.649Z,16.77
2023-04-23T05:59:38.427Z,17.31
2023-04-23T06:02:08.824Z,17.29
2023-04-23T06:04:38.493Z,17.32
2023-04-23T06:07:09.527Z,17.08
2023-04-23T06:09:38.909Z,17.29
2023-04-23T06:12:09.225Z,17.44
2023-04-23T06:14:39.471Z,17.14
2023-04-23T06:17:09.083Z,17.57
2023-04-23T06:19:45.828Z,17.60
2023-04-23T06:22:27.580Z,17.82
2023-04-23T06:24:57.822Z,17.67
2023-04-23T06:27:28.100Z,17.48
2023-04-23T06:30:02.221Z,17.02
2023-04-23T06:32:37.022Z,17.65
2023-04-23T06:35:09.502Z,17.60
2023-04-23T06:37:45.360Z,17.68
2023-04-23T06:40:16.111Z,17.98
2023-04-23T06:43:08.305Z,18.07
2023-04-23T06:46:02.431Z,17.72
2023-04-23T06:48:32.696Z,16.87
2023-04-23T06:51:02.421Z,17.74
2023-04-23T06:53:33.171Z,17.90
2023-04-23T06:56:02.306Z,18.37
2023-04-23T06:58:41.397Z,18.37
2023-04-23T07:01:20.731Z,18.33
2023-04-23T07:03:52.541Z,18.49
2023-04-23T07:06:23.747Z,18.77
2023-04-23T07:08:54.781Z,18.59
2023-04-23T07:11:29.729Z,18.85
2023-04-23T07:14:00.121Z,19.10
2023-04-23T07:16:33.556Z,18.93
2023-04-23T07:19:03.363Z,19.25
2023-04-23T07:21:33.161Z,19.67
2023-04-23T07:24:07.004Z,19.06
2023-04-23T07:26:39.758Z,19.08
2023-04-23T07:29:10.704Z,18.95
2023-04-23T07:31:42.097Z,19.01
2023-04-23T07:34:14.397Z,19.15
2023-04-23T07:36:46.671Z,19.45
2023-04-23T07:39:17.267Z,18.99
2023-04-23T07:41:50.313Z,19.20
2023-04-23T07:44:19.775Z,19.60
2023-04-23T07:46:58.858Z,20.59
2023-04-23T07:53:51.211Z,20.23
2023-04-23T07:56:22.656Z,20.04
2023-04-23T07:58:55.967Z,20.64
2023-04-23T08:01:25.510Z,20.65
2023-04-23T08:03:59.404Z,21.41
2023-04-23T08:06:30.077Z,21.25
2023-04-23T08:09:00.421Z,21.52
2023-04-23T08:11:33.498Z,22.00
2023-04-23T08:14:07.308Z,22.11
2023-04-23T08:16:39.131Z,22.35
2023-04-23T08:19:11.694Z,22.88
2023-04-23T08:21:42.341Z,21.55
2023-04-23T08:24:19.112Z,21.84
2023-04-23T08:26:50.072Z,21.95
2023-04-23T08:31:48.019Z,21.49
2023-04-23T08:34:17.995Z,22.14
2023-04-23T08:36:53.192Z,22.79
2023-04-23T08:39:24.301Z,23.26
2023-04-23T08:41:56.765Z,22.87
2023-04-23T08:44:27.588Z,22.04
2023-04-23T08:47:02.747Z,22.44
2023-04-23T08:49:35.709Z,21.94
2023-04-23T08:52:18.425Z,21.61
2023-04-23T08:54:53.976Z,21.78
2023-04-23T08:57:26.537Z,21.89
2023-04-23T08:59:57.379Z,22.01
2023-04-23T09:02:27.003Z,21.89
2023-04-23T09:04:58.951Z,21.51
2023-04-23T09:07:30.443Z,20.78
2023-04-23T09:10:00.381Z,20.74
2023-04-23T09:12:31.321Z,20.74
2023-04-23T09:15:01.028Z,20.19
2023-04-23T09:17:34.423Z,20.40
2023-04-23T09:20:14.180Z,20.63
2023-04-23T09:22:46.781Z,20.43
2023-04-23T09:25:18.186Z,20.35
2023-04-23T09:27:50.681Z,20.55
2023-04-23T09:30:21.043Z,20.55
2023-04-23T09:32:50.993Z,20.94
2023-04-23T09:35:39.019Z,21.40
2023-04-23T09:38:15.716Z,22.14
2023-04-23T09:40:45.867Z,22.20
2023-04-23T09:43:17.129Z,23.06
2023-04-23T09:45:54.631Z,23.66
2023-04-23T09:48:43.502Z,23.02
2023-04-23T09:51:17.460Z,22.66
2023-04-23T09:53:51.365Z,23.36
2023-04-23T09:56:27.372Z,23.49
2023-04-23T09:59:32.493Z,23.66
2023-04-23T10:02:09.899Z,22.80
2023-04-23T10:04:46.582Z,22.18
2023-04-23T10:07:24.530Z,22.32
2023-04-23T10:09:53.843Z,22.52
2023-04-23T10:12:41.011Z,23.17
2023-04-23T10:15:44.243Z,23.38
2023-04-23T10:18:18.564Z,23.45
2023-04-23T10:20:52.021Z,23.84
2023-04-23T10:23:23.345Z,23.68
2023-04-23T10:25:57.051Z,22.89
2023-04-23T10:28:32.192Z,22.96
2023-04-23T10:31:05.099Z,23.85
2023-04-23T10:33:45.759Z,23.86
2023-04-23T10:36:29.100Z,23.90
2023-04-23T10:39:04.011Z,24.83
2023-04-23T10:41:37.769Z,25.05
2023-04-23T10:44:07.354Z,25.23
2023-04-23T10:46:39.388Z,27.96
2023-04-23T10:49:14.411Z,27.97
2023-04-23T10:54:21.018Z,25.46
2023-04-23T10:57:12.150Z,25.57
2023-04-23T10:59:43.486Z,25.47
2023-04-23T11:02:15.064Z,25.71
2023-04-23T11:04:49.123Z,25.31
2023-04-23T11:07:27.326Z,24.71
2023-04-23T11:10:00.181Z,24.79
2023-04-23T11:12:36.158Z,25.51
2023-04-23T11:15:13.725Z,25.37
2023-04-23T11:18:03.494Z,27.73
2023-04-23T11:20:33.107Z,28.08
2023-04-23T11:23:06.156Z,27.17
2023-04-23T11:25:37.388Z,29.10
2023-04-23T11:28:07.918Z,28.01
2023-04-23T11:30:39.619Z,28.99
2023-04-23T11:33:13.428Z,25.92
2023-04-23T11:35:45.275Z,25.19
2023-04-23T11:38:27.572Z,25.60
2023-04-23T11:41:00.329Z,26.16
2023-04-23T11:43:30.864Z,26.63
2023-04-23T11:46:08.472Z,26.38
2023-04-23T11:48:39.087Z,26.27
2023-04-23T11:51:11.238Z,26.28
2023-04-23T11:53:47.760Z,27.12
2023-04-23T11:56:24.087Z,29.17
2023-04-23T11:59:01.250Z,28.30
2023-04-23T12:01:45.958Z,27.11
2023-04-23T12:04:18.567Z,25.81
2023-04-23T12:06:53.122Z,26.72
2023-04-23T12:09:31.489Z,27.36
2023-04-23T12:12:01.306Z,29.75
2023-04-23T12:14:33.306Z,29.27
2023-04-23T12:17:11.920Z,28.08
2023-04-23T12:19:46.101Z,27.46
2023-04-23T12:22:16.026Z,26.65
2023-04-23T12:24:53.709Z,27.05
2023-04-23T12:27:23.365Z,32.74
2023-04-23T12:30:07.886Z,35.11
2023-04-23T12:32:38.759Z,37.24
2023-04-23T12:35:14.580Z,39.20
2023-04-23T12:37:45.525Z,39.13
2023-04-23T12:40:21.991Z,38.37
2023-04-23T12:42:51.728Z,36.69
2023-04-23T12:45:20.761Z,35.76
2023-04-23T12:47:50.063Z,37.17
2023-04-23T12:50:21.121Z,38.23
2023-04-23T12:52:51.474Z,37.03
2023-04-23T12:55:24.272Z,37.30
2023-04-23T12:57:59.729Z,37.26
2023-04-23T13:00:29.662Z,35.77
2023-04-23T13:02:59.517Z,37.32
2023-04-23T13:05:30.810Z,38.52
2023-04-23T13:08:00.193Z,37.47
2023-04-23T13:10:31.056Z,39.54
2023-04-23T13:13:00.377Z,38.90
2023-04-23T13:15:32.813Z,37.04
2023-04-23T13:18:02.458Z,38.71
2023-04-23T13:20:35.453Z,37.98
2023-04-23T13:23:04.677Z,37.75
2023-04-23T13:25:35.079Z,38.92
2023-04-23T13:28:04.313Z,39.17
2023-04-23T13:30:36.527Z,36.99
2023-04-23T13:33:06.158Z,40.06
2023-04-23T13:35:56.134Z,37.80
2023-04-23T13:38:38.810Z,37.99
2023-04-23T13:41:08.665Z,37.90
2023-04-23T13:43:38.182Z,36.47
2023-04-23T13:46:08.372Z,37.57
2023-04-23T13:48:38.086Z,38.42
2023-04-23T13:51:21.842Z,38.80
2023-04-23T13:54:02.468Z,38.29
2023-04-23T13:56:32.524Z,37.41
2023-04-23T13:59:18.347Z,36.52
2023-04-23T14:01:50.276Z,38.62
2023-04-23T14:04:20.271Z,38.48
2023-04-23T14:06:51.259Z,38.86
2023-04-23T14:09:22.676Z,40.03
2023-04-23T14:11:52.241Z,37.55
2023-04-23T14:14:21.424Z,38.44
2023-04-23T14:16:51.474Z,38.55
2023-04-23T14:19:20.930Z,34.83
2023-04-23T14:21:51.438Z,37.63
2023-04-23T14:24:28.813Z,38.00
2023-04-23T14:26:58.013Z,37.55
2023-04-23T14:33:11.945Z,33.58
2023-04-23T14:35:54.635Z,34.67
2023-04-23T14:38:26.693Z,35.57
2023-04-23T14:40:57.804Z,33.02
2023-04-23T14:43:27.289Z,36.27
2023-04-23T14:45:56.893Z,36.08
2023-04-23T14:48:26.746Z,33.49
2023-04-23T14:50:55.848Z,31.16
2023-04-23T14:53:26.440Z,33.16
2023-04-23T14:55:56.136Z,35.89
2023-04-23T14:58:25.362Z,34.04
2023-04-23T15:00:54.480Z,35.37
2023-04-23T15:03:23.998Z,34.59
2023-04-23T15:05:53.635Z,34.90
2023-04-23T15:08:23.362Z,35.39
2023-04-23T15:10:54.196Z,33.51
2023-04-23T15:13:40.274Z,33.59
2023-04-23T15:16:28.362Z,34.79
2023-04-23T15:19:07.547Z,34.69
2023-04-23T15:21:36.896Z,34.81
2023-04-23T15:24:07.949Z,34.15
2023-04-23T15:26:39.350Z,32.36
2023-04-23T15:29:10.107Z,33.14
2023-04-23T15:31:39.801Z,33.33
2023-04-23T15:34:09.716Z,33.36
2023-04-23T15:36:39.014Z,33.17
2023-04-23T15:39:08.717Z,32.33
2023-04-23T15:41:40.966Z,31.99
2023-04-23T15:44:13.009Z,32.78
2023-04-23T15:46:42.375Z,30.01
2023-04-23T15:49:11.622Z,27.11
2023-04-23T15:51:40.817Z,25.46
2023-04-23T15:54:10.825Z,24.58
2023-04-23T15:56:41.748Z,24.04
2023-04-23T15:59:10.930Z,23.27
2023-04-23T16:01:40.338Z,23.12
2023-04-23T16:04:11.486Z,23.48
2023-04-23T16:06:40.913Z,23.03
2023-04-23T16:09:13.449Z,23.00
2023-04-23T16:11:44.247Z,22.16
2023-04-23T16:14:13.377Z,22.17
2023-04-23T16:16:42.725Z,22.33
2023-04-23T16:19:12.200Z,21.52
2023-04-23T16:21:41.637Z,21.33
2023-04-23T16:24:10.752Z,21.18
2023-04-23T16:26:40.391Z,21.74
2023-04-23T16:29:21.411Z,21.35
2023-04-23T16:31:51.932Z,20.80
2023-04-23T16:34:23.626Z,20.73
2023-04-23T16:36:52.955Z,20.88
2023-04-23T16:39:22.132Z,20.56
2023-04-23T16:41:51.523Z,20.81
2023-04-23T16:44:22.203Z,20.64
2023-04-23T16:46:51.716Z,20.27
2023-04-23T16:49:22.428Z,20.31
2023-04-23T16:52:12.540Z,20.11
2023-04-23T16:54:41.706Z,19.88
2023-04-23T16:57:11.591Z,19.32
2023-04-23T16:59:42.048Z,19.57
2023-04-23T17:02:11.525Z,19.35
2023-04-23T17:04:41.416Z,19.27
2023-04-23T17:07:11.620Z,18.51
2023-04-23T17:09:40.734Z,18.47
2023-04-23T17:12:09.687Z,18.18
2023-04-23T17:14:38.941Z,17.90
2023-04-23T17:17:26.532Z,18.39
2023-04-23T17:19:56.040Z,18.48
2023-04-23T17:22:25.817Z,18.42
2023-04-23T17:24:54.870Z,18.31
2023-04-23T17:27:24.205Z,17.99
2023-04-23T17:29:53.280Z,17.69
2023-04-23T17:32:23.995Z,17.76
2023-04-23T17:35:06.361Z,17.76
2023-04-23T17:37:38.325Z,17.29
2023-04-23T17:40:09.846Z,17.54
2023-04-23T17:42:39.586Z,17.55
2023-04-23T17:45:10.156Z,17.23
2023-04-23T17:47:41.052Z,17.25
2023-04-23T17:50:13.821Z,17.27
2023-04-23T17:52:45.331Z,16.70
2023-04-23T17:55:14.685Z,17.12
2023-04-23T17:57:46.528Z,16.70
2023-04-23T18:00:17.644Z,17.15
2023-04-23T18:02:50.809Z,16.53
2023-04-23T18:05:20.621Z,16.78
2023-04-23T18:07:49.952Z,17.15
2023-04-23T18:10:19.285Z,16.94
2023-04-23T18:12:48.761Z,16.89
2023-04-23T18:15:18.038Z,16.88
2023-04-23T18:17:48.592Z,16.71
2023-04-23T18:20:18.100Z,16.26
2023-04-23T18:22:48.228Z,15.96
2023-04-23T18:25:17.642Z,15.70
2023-04-23T18:27:46.925Z,15.92
2023-04-23T18:30:16.540Z,15.77
2023-04-23T18:32:50.848Z,16.01
2023-04-23T18:35:21.153Z,15.98
2023-04-23T18:37:55.801Z,16.15
2023-04-23T18:40:28.219Z,15.87
2023-04-23T18:42:57.750Z,15.93
2023-04-23T18:45:27.085Z,15.78
2023-04-23T18:48:06.290Z,15.63
2023-04-23T18:50:44.260Z,15.63
2023-04-23T18:53:15.185Z,15.69
2023-04-23T18:55:46.671Z,15.45
2023-04-23T18:58:15.964Z,15.57
2023-04-23T19:00:47.524Z,15.43
2023-04-23T19:03:25.930Z,15.35
2023-04-23T19:05:58.991Z,15.09
2023-04-23T19:08:29.761Z,14.79
2023-04-23T19:11:02.186Z,15.13
2023-04-23T19:13:33.760Z,15.10
2023-04-23T19:16:03.281Z,15.05
2023-04-23T19:18:34.604Z,15.22
2023-04-23T19:21:07.025Z,15.08
2023-04-23T19:23:36.630Z,14.95
2023-04-23T19:26:09.561Z,15.02
2023-04-23T19:28:38.853Z,14.57
2023-04-23T19:31:08.234Z,14.25
2023-04-23T19:33:39.560Z,14.84
2023-04-23T19:36:09.366Z,14.90
2023-04-23T19:38:38.626Z,14.75
2023-04-23T19:41:07.833Z,14.59
2023-04-23T19:43:36.864Z,13.99
2023-04-23T19:46:09.044Z,13.95
2023-04-23T19:48:39.581Z,14.49
2023-04-23T19:51:12.005Z,14.44
2023-04-23T19:53:44.018Z,14.27
2023-04-23T19:56:15.265Z,14.28
2023-04-23T19:58:44.376Z,14.02
2023-04-23T20:01:13.759Z,13.68
2023-04-23T20:03:47.792Z,13.73
2023-04-23T20:06:17.253Z,13.74
2023-04-23T20:09:06.060Z,13.96
2023-04-23T20:11:35.670Z,13.83
2023-04-23T20:14:07.497Z,13.87
2023-04-23T20:16:39.811Z,13.80
2023-04-23T20:19:11.290Z,13.56
2023-04-23T20:21:41.465Z,13.57
2023-04-23T20:24:11.861Z,13.61
2023-04-23T20:26:42.378Z,13.50
2023-04-23T20:29:11.663Z,13.47
2023-04-23T20:31:42.752Z,13.52
2023-04-23T20:34:13.048Z,13.50
2023-04-23T20:36:42.063Z,13.37
2023-04-23T20:39:11.144Z,13.35
2023-04-23T20:41:40.725Z,13.36
2023-04-23T20:44:17.730Z,13.18
2023-04-23T20:46:47.509Z,13.02
2023-04-23T20:49:18.430Z,13.04
2023-04-23T20:51:50.966Z,12.97
2023-04-23T20:54:20.640Z,12.96
2023-04-23T20:56:54.295Z,12.88
2023-04-23T20:59:24.104Z,12.82
2023-04-23T21:01:53.381Z,12.68
2023-04-23T21:04:24.120Z,12.69
2023-04-23T21:06:53.286Z,12.61
2023-04-23T21:09:22.488Z,12.21
2023-04-23T21:11:53.961Z,12.56
2023-04-23T21:14:23.155Z,12.48
2023-04-23T21:16:53.271Z,12.40
2023-04-23T21:19:23.859Z,12.34
2023-04-23T21:21:52.985Z,11.94
2023-04-23T21:24:22.081Z,12.23
2023-04-23T21:26:51.706Z,11.95
2023-04-23T21:29:20.633Z,12.19
2023-04-23T21:31:54.579Z,12.22
2023-04-23T21:34:25.015Z,12.07
2023-04-23T21:36:53.949Z,11.91
2023-04-23T21:39:23.109Z,11.97
2023-04-23T21:41:53.242Z,11.89
2023-04-23T21:44:22.596Z,11.85
2023-04-23T21:46:51.628Z,11.82
2023-04-23T21:49:22.464Z,11.82
2023-04-23T21:51:54.630Z,11.66
2023-04-23T21:54:23.789Z,11.76
2023-04-23T21:56:52.846Z,11.78
2023-04-23T21:59:23.340Z,11.72
2023-04-23T22:01:52.469Z,11.60
2023-04-23T22:04:22.692Z,11.36
2023-04-23T22:06:53.987Z,11.57
2023-04-23T22:09:23.262Z,11.57
2023-04-23T22:12:01.908Z,11.58
2023-04-23T22:14:32.306Z,11.42
2023-04-23T22:17:02.182Z,11.41
2023-04-23T22:19:32.275Z,11.32
2023-04-23T22:22:02.496Z,11.32
2023-04-23T22:24:34.090Z,11.37
2023-04-23T22:27:03.294Z,11.14
2023-04-23T22:29:32.321Z,11.20
2023-04-23T22:32:01.422Z,11.14
2023-04-23T22:34:30.567Z,11.14
2023-04-23T22:36:59.690Z,11.04
2023-04-23T22:39:30.137Z,10.96
2023-04-23T22:41:59.083Z,11.20
2023-04-23T22:44:28.302Z,11.26
2023-04-23T22:46:58.088Z,11.22
2023-04-23T22:49:27.560Z,11.20
2023-04-23T22:51:59.337Z,11.23
2023-04-23T22:54:29.789Z,11.28
2023-04-23T22:56:59.147Z,11.16
2023-04-23T22:59:27.983Z,11.16
2023-04-23T23:01:56.922Z,11.04
2023-04-23T23:04:26.201Z,11.05
2023-04-23T23:06:55.509Z,10.77
2023-04-23T23:09:28.332Z,11.01
2023-04-23T23:11:58.905Z,10.98
2023-04-23T23:14:29.016Z,10.91
2023-04-23T23:16:58.476Z,10.77
2023-04-23T23:19:28.071Z,10.85
2023-04-23T23:21:57.766Z,10.81
2023-04-23T23:24:26.981Z,10.77
2023-04-23T23:26:55.950Z,10.69
2023-04-23T23:29:28.725Z,10.60
2023-04-23T23:31:58.686Z,10.53
2023-04-23T23:34:30.469Z,10.53
2023-04-23T23:36:59.726Z,10.39
2023-04-23T23:39:29.118Z,10.46
2023-04-23T23:42:01.628Z,10.53
2023-04-23T23:44:32.272Z,10.40
2023-04-23T23:47:01.897Z,10.45
2023-04-23T23:49:33.721Z,10.47
2023-04-23T23:52:03.942Z,10.45
2023-04-23T23:54:33.102Z,10.33
2023-04-23T23:57:02.432Z,10.32
2023-04-23T23:59:32.899Z,10.26
